Side Lake, MN

2:10 PM CDT on July 28, 2015 (GMT -0500)
Cook Municipal | | Change Station
CLOSE
Current Station
Airport
Location: Cook,
Elevation: 1325 ft
Nearby Weather Stations

Elev 1325 ft 47.82 °N, 92.69 °W | Updated 15 minutes ago

Overcast
Overcast
79 °F
Feels Like 79 °F
N
17
Wind Variable Wind from South
Gusts 23 mph

Today
High -- | Low -- °F
--% Chance of Precip.
Yesterday
High -- | Low -- °F
Precip. -- in
5:43 AM 8:52 PM
Waxing Gibbous, 91% visible
Pressure 29.74 in
Visibility 10.0 miles
Clouds Scattered Clouds 3400 ft
Scattered Clouds 3900 ft
Mostly Cloudy 6000 ft
Dew Point 66 °F
Humidity 65%
Rainfall 0.01 in
Snow Depth Not available.
UV 5 out of 12
Pollen 1.70 out of 12
Air Quality Not available.
Flu Activity Not available.
METAR KCQM 281855Z AUTO 18015G20KT 151V221 10SM SCT034 SCT039 BKN060 26/19 A2974 RMK AO2

More Conditions Fewer Conditions

Pressure 29.74 in
Visibility 10.0 miles
Clouds Scattered Clouds 3400 ft
Scattered Clouds 3900 ft
Mostly Cloudy 6000 ft
Dew Point 66 °F
Humidity 65%
Rainfall 0.01 in
Snow Depth Not available.
UV 5 out of 12
Pollen 1.70 out of 12
Air Quality Not available.
Flu Activity Not available.
METAR KCQM 281855Z AUTO 18015G20KT 151V221 10SM SCT034 SCT039 BKN060 26/19 A2974 RMK AO2

More Conditions Fewer Conditions

10-Day Weather Forecast

×

Almanac

Astronomy

Jul. 28, 2015 Rise Set
Actual Time
Civil Twilight
Nautical Twilight
Astronomical Twilight
Moon
Length of Visible Light
Length of Day
Tomorrow will be .
, % of the Moon is Illuminated

Today's Extremes

State Highs State Lows

Community

WunderPhotos

Upload Photos

1,841,918 photos uploaded!

WunderBlogs® & News

Nearby

Air Quality

  Air Quality AQ Index Pollutant
Not available.

Snow Depth

Station Depth Elevation

Earthquake Activity

City Distance Mag. Time & Date
Minimum magnitude displayed is 2.5.

Coastal Water Temperatures

Place Temperature

Stations

Nearby Weather Stations

Station Location Temp. Windchill Dew Point Humidity Wind Precip. Elev Updated Type